createdAt,value
2017-10-15T00:01:31.302Z,11.10
2017-10-15T00:03:58.703Z,8.00
2017-10-15T00:06:26.151Z,9.27
2017-10-15T00:08:54.785Z,9.40
2017-10-15T00:11:22.211Z,7.57
2017-10-15T00:13:49.606Z,10.00
2017-10-15T00:16:17.004Z,8.43
2017-10-15T00:18:44.441Z,7.40
2017-10-15T00:21:11.836Z,7.30
2017-10-15T00:23:39.255Z,4.90
2017-10-15T00:26:06.665Z,7.10
2017-10-15T00:28:34.082Z,6.37
2017-10-15T00:31:01.488Z,7.07
2017-10-15T00:33:28.905Z,8.53
2017-10-15T00:35:56.296Z,6.57
2017-10-15T00:38:23.694Z,6.87
2017-10-15T00:40:51.120Z,7.70
2017-10-15T00:43:18.516Z,7.60
2017-10-15T00:45:45.916Z,7.53
2017-10-15T00:48:13.318Z,4.60
2017-10-15T00:50:40.727Z,7.63
2017-10-15T00:53:08.158Z,12.13
2017-10-15T00:55:35.601Z,12.13
2017-10-15T00:58:03.025Z,5.80
2017-10-15T01:00:30.439Z,8.30
2017-10-15T01:02:57.868Z,8.97
2017-10-15T01:05:25.270Z,6.10
2017-10-15T01:07:52.699Z,8.73
2017-10-15T01:10:20.126Z,8.67
2017-10-15T01:12:47.543Z,6.77
2017-10-15T01:15:14.953Z,7.23
2017-10-15T01:17:42.360Z,6.43
2017-10-15T01:20:09.782Z,8.87
2017-10-15T01:22:37.209Z,5.77
2017-10-15T01:25:04.615Z,6.10
2017-10-15T01:27:32.031Z,9.53
2017-10-15T01:29:59.437Z,8.60
2017-10-15T01:32:27.580Z,7.43
2017-10-15T01:34:55.064Z,8.00
2017-10-15T01:37:22.812Z,10.60
2017-10-15T01:39:50.241Z,18.77
2017-10-15T01:42:17.643Z,14.80
2017-10-15T01:44:45.056Z,12.73
2017-10-15T01:47:12.570Z,8.60
2017-10-15T01:49:39.979Z,8.20
2017-10-15T01:52:08.098Z,9.10
2017-10-15T01:54:35.844Z,8.90
2017-10-15T01:57:03.235Z,5.87
2017-10-15T01:59:30.638Z,5.23
2017-10-15T02:01:58.061Z,10.03
2017-10-15T02:04:25.450Z,8.03
2017-10-15T02:06:52.871Z,9.80
2017-10-15T02:09:20.284Z,6.60
2017-10-15T02:11:47.693Z,5.27
2017-10-15T02:14:15.105Z,5.83
2017-10-15T02:16:42.500Z,8.50
2017-10-15T02:19:09.924Z,5.70
2017-10-15T02:21:37.831Z,11.73
2017-10-15T02:24:05.224Z,8.57
2017-10-15T02:26:32.644Z,12.53
2017-10-15T02:29:00.055Z,4.93
2017-10-15T02:31:27.457Z,10.30
2017-10-15T02:33:54.854Z,15.13
2017-10-15T02:36:22.268Z,12.70
2017-10-15T02:38:49.669Z,12.07
2017-10-15T02:41:17.457Z,11.73
2017-10-15T02:43:44.855Z,9.50
2017-10-15T02:46:12.253Z,6.30
2017-10-15T02:48:39.667Z,5.77
2017-10-15T02:51:07.064Z,11.73
2017-10-15T02:53:34.490Z,13.43
2017-10-15T02:56:01.890Z,10.80
2017-10-15T02:58:29.309Z,9.20
2017-10-15T03:00:56.703Z,8.20
2017-10-15T03:03:24.126Z,7.83
2017-10-15T03:05:51.526Z,10.93
2017-10-15T03:08:18.925Z,7.27
2017-10-15T03:10:46.338Z,8.40
2017-10-15T03:13:13.731Z,6.10
2017-10-15T03:15:41.137Z,5.93
2017-10-15T03:18:08.557Z,11.63
2017-10-15T03:20:36.321Z,8.90
2017-10-15T03:23:03.726Z,8.63
2017-10-15T03:25:31.128Z,11.40
2017-10-15T03:27:58.544Z,14.03
2017-10-15T03:30:25.946Z,9.60
2017-10-15T03:32:53.371Z,11.07
2017-10-15T03:35:21.624Z,9.00
2017-10-15T03:37:49.027Z,7.67
2017-10-15T03:40:16.426Z,7.80
2017-10-15T03:42:43.835Z,6.77
2017-10-15T03:45:11.255Z,9.30
2017-10-15T03:47:38.654Z,7.97
2017-10-15T03:50:06.425Z,13.90
2017-10-15T03:52:33.813Z,6.20
2017-10-15T03:55:01.214Z,6.53
2017-10-15T03:57:28.646Z,6.60
2017-10-15T03:59:56.045Z,6.20
2017-10-15T04:02:23.461Z,18.53
2017-10-15T04:04:50.869Z,9.17
2017-10-15T04:07:18.291Z,6.60
2017-10-15T04:09:45.692Z,6.17
2017-10-15T04:12:13.114Z,7.67
2017-10-15T04:14:40.525Z,7.23
2017-10-15T04:17:07.934Z,14.40
2017-10-15T04:19:35.341Z,10.07
2017-10-15T04:22:02.751Z,8.90
2017-10-15T04:24:30.178Z,8.37
2017-10-15T04:26:57.577Z,9.80
2017-10-15T04:29:24.987Z,11.13
2017-10-15T04:31:52.401Z,8.43
2017-10-15T04:34:19.809Z,7.00
2017-10-15T04:36:47.227Z,9.30
2017-10-15T04:39:14.629Z,10.27
2017-10-15T04:41:42.050Z,6.33
2017-10-15T04:44:09.450Z,7.47
2017-10-15T04:46:36.856Z,6.57
2017-10-15T04:49:04.267Z,5.30
2017-10-15T04:51:31.689Z,8.10
2017-10-15T04:53:59.101Z,7.93
2017-10-15T04:56:26.518Z,5.27
2017-10-15T04:58:53.915Z,5.40
2017-10-15T05:01:21.327Z,9.20
2017-10-15T05:03:48.753Z,6.20
2017-10-15T05:06:16.170Z,10.13
2017-10-15T05:08:43.583Z,10.13
2017-10-15T05:11:11.006Z,12.83
2017-10-15T05:13:38.415Z,11.80
2017-10-15T05:16:05.823Z,12.10
2017-10-15T05:18:33.243Z,14.07
2017-10-15T05:21:00.638Z,8.20
2017-10-15T05:23:28.040Z,10.03
2017-10-15T05:25:55.452Z,8.70
2017-10-15T05:28:22.881Z,8.97
2017-10-15T05:30:50.299Z,11.40
2017-10-15T05:33:17.689Z,7.10
2017-10-15T05:35:45.114Z,11.43
2017-10-15T05:38:12.521Z,12.37
2017-10-15T05:40:39.930Z,17.00
2017-10-15T05:43:07.703Z,12.13
2017-10-15T05:45:35.141Z,13.60
2017-10-15T05:48:02.573Z,12.03
2017-10-15T05:50:30.026Z,8.77
2017-10-15T05:52:57.418Z,11.17
2017-10-15T05:55:24.817Z,9.70
2017-10-15T05:57:52.237Z,7.93
2017-10-15T06:00:19.642Z,10.93
2017-10-15T06:02:47.064Z,8.60
2017-10-15T06:05:14.461Z,3.93
2017-10-15T06:07:41.948Z,7.53
2017-10-15T06:10:09.353Z,4.60
2017-10-15T06:12:36.769Z,4.37
2017-10-15T06:15:04.182Z,3.33
2017-10-15T06:17:31.600Z,6.60
2017-10-15T06:19:59.009Z,4.67
2017-10-15T06:22:26.413Z,4.10
2017-10-15T06:24:53.833Z,2.97
2017-10-15T06:27:21.254Z,5.07
2017-10-15T06:29:48.675Z,6.80
2017-10-15T06:32:16.098Z,3.60
2017-10-15T06:34:43.521Z,5.63
2017-10-15T06:37:10.925Z,8.30
2017-10-15T06:39:38.344Z,7.07
2017-10-15T06:42:05.748Z,16.93
2017-10-15T06:44:33.151Z,11.60
2017-10-15T06:47:00.560Z,8.90
2017-10-15T06:49:27.970Z,4.73
2017-10-15T06:51:55.391Z,5.40
2017-10-15T06:54:22.778Z,4.97
2017-10-15T06:56:50.230Z,5.10
2017-10-15T06:59:17.629Z,6.03
2017-10-15T07:01:45.074Z,4.20
2017-10-15T07:04:12.478Z,4.63
2017-10-15T07:06:39.877Z,4.50
2017-10-15T07:09:07.298Z,5.07
2017-10-15T07:11:34.696Z,6.90
2017-10-15T07:14:02.121Z,6.43
2017-10-15T07:16:29.523Z,7.57
2017-10-15T07:18:56.958Z,21.60
2017-10-15T07:21:24.372Z,15.50
2017-10-15T07:23:51.781Z,8.93
2017-10-15T07:26:19.205Z,6.30
2017-10-15T07:28:46.635Z,8.10
2017-10-15T07:31:14.038Z,4.80
2017-10-15T07:33:41.524Z,4.43
2017-10-15T07:36:08.945Z,8.10
2017-10-15T07:38:36.669Z,9.20
2017-10-15T07:41:04.134Z,6.53
2017-10-15T07:43:31.724Z,10.10
2017-10-15T07:45:59.139Z,8.63
2017-10-15T07:48:26.546Z,9.93
2017-10-15T07:50:53.981Z,23.73
2017-10-15T07:53:21.398Z,31.43
2017-10-15T07:55:48.820Z,11.10
2017-10-15T07:58:16.253Z,16.27
2017-10-15T08:00:43.678Z,25.97
2017-10-15T08:03:11.117Z,18.10
2017-10-15T08:05:38.572Z,12.00
2017-10-15T08:08:05.995Z,11.33
2017-10-15T08:10:33.414Z,9.50
2017-10-15T08:13:00.846Z,34.40
2017-10-15T08:15:28.265Z,15.67
2017-10-15T08:17:55.698Z,31.30
2017-10-15T08:20:23.420Z,15.93
2017-10-15T08:22:50.843Z,42.23
2017-10-15T08:25:18.272Z,48.63
2017-10-15T08:27:45.717Z,16.43
2017-10-15T08:30:13.141Z,21.47
2017-10-15T08:32:40.612Z,27.40
2017-10-15T08:35:08.065Z,24.83
2017-10-15T08:37:35.483Z,25.23
2017-10-15T08:40:02.918Z,25.63
2017-10-15T08:42:30.371Z,25.40
2017-10-15T08:44:57.788Z,20.00
2017-10-15T08:47:25.205Z,14.00
2017-10-15T08:49:52.653Z,30.93
2017-10-15T08:52:20.053Z,19.57
2017-10-15T08:54:47.475Z,44.97
2017-10-15T08:57:14.898Z,25.93
2017-10-15T08:59:42.346Z,29.07
2017-10-15T09:02:09.753Z,14.73
2017-10-15T09:04:37.218Z,18.00
2017-10-15T09:07:04.640Z,25.93
2017-10-15T09:09:32.053Z,23.37
2017-10-15T09:11:59.502Z,25.67
2017-10-15T09:14:27.045Z,28.80
2017-10-15T09:16:54.488Z,31.93
2017-10-15T09:19:21.907Z,18.47
2017-10-15T09:21:49.347Z,45.93
2017-10-15T09:24:16.766Z,43.07
2017-10-15T09:26:44.207Z,31.90
2017-10-15T09:29:11.674Z,16.20
2017-10-15T09:31:39.074Z,43.90
2017-10-15T09:34:06.546Z,26.37
2017-10-15T09:36:34.023Z,22.03
2017-10-15T09:39:01.485Z,21.93
2017-10-15T09:41:28.908Z,26.07
2017-10-15T09:43:56.370Z,44.17
2017-10-15T09:46:23.793Z,41.23
2017-10-15T09:48:51.246Z,17.50
2017-10-15T09:51:18.670Z,55.27
2017-10-15T09:53:46.089Z,35.00
2017-10-15T09:56:13.528Z,36.10
2017-10-15T09:58:40.945Z,20.30
2017-10-15T10:01:08.670Z,19.40
2017-10-15T10:03:36.084Z,23.73
2017-10-15T10:06:03.516Z,59.87
2017-10-15T10:08:30.937Z,40.10
2017-10-15T10:10:58.361Z,44.47
2017-10-15T10:13:25.790Z,39.90
2017-10-15T10:15:53.229Z,31.50
2017-10-15T10:18:20.658Z,44.03
2017-10-15T10:20:48.413Z,36.70
2017-10-15T10:23:15.872Z,21.77
2017-10-15T10:25:43.629Z,45.10
2017-10-15T10:28:11.054Z,62.43
2017-10-15T10:30:38.477Z,42.40
2017-10-15T10:33:05.907Z,110.70
2017-10-15T10:35:33.318Z,36.63
2017-10-15T10:38:00.764Z,68.07
2017-10-15T10:40:28.162Z,38.57
2017-10-15T10:42:55.604Z,45.43
2017-10-15T10:45:23.040Z,43.20
2017-10-15T10:47:50.462Z,27.13
2017-10-15T10:50:17.882Z,49.40
2017-10-15T10:52:45.337Z,58.13
2017-10-15T10:55:13.114Z,51.90
2017-10-15T10:57:40.599Z,23.93
2017-10-15T11:00:08.020Z,34.50
2017-10-15T11:02:35.445Z,43.53
2017-10-15T11:05:02.884Z,35.70
2017-10-15T11:07:30.397Z,21.33
2017-10-15T11:09:57.841Z,54.90
2017-10-15T11:12:25.278Z,38.73
2017-10-15T11:14:52.722Z,38.10
2017-10-15T11:17:20.189Z,28.57
2017-10-15T11:19:47.616Z,52.67
2017-10-15T11:22:15.024Z,29.53
2017-10-15T11:24:42.458Z,31.83
2017-10-15T11:27:09.873Z,57.30
2017-10-15T11:29:37.310Z,39.30
2017-10-15T11:32:04.755Z,38.67
2017-10-15T11:34:32.173Z,30.60
2017-10-15T11:36:59.619Z,57.43
2017-10-15T11:39:27.029Z,37.07
2017-10-15T11:41:54.448Z,29.97
2017-10-15T11:44:21.896Z,30.67
2017-10-15T11:46:49.302Z,24.53
2017-10-15T11:49:16.729Z,54.97
2017-10-15T11:51:44.157Z,29.70
2017-10-15T11:54:11.577Z,22.27
2017-10-15T11:56:39.011Z,41.73
2017-10-15T11:59:06.484Z,25.00
2017-10-15T12:01:33.939Z,37.27
2017-10-15T12:04:01.339Z,37.57
2017-10-15T12:06:28.853Z,35.40
2017-10-15T12:08:56.264Z,49.60
2017-10-15T12:11:24.127Z,26.53
2017-10-15T12:13:51.634Z,28.20
2017-10-15T12:16:19.888Z,22.00
2017-10-15T12:18:47.395Z,36.03
2017-10-15T12:21:14.869Z,31.43
2017-10-15T12:23:42.313Z,23.67
2017-10-15T12:26:09.768Z,33.33
2017-10-15T12:28:37.172Z,26.57
2017-10-15T12:31:04.662Z,33.00
2017-10-15T12:33:32.100Z,20.27
2017-10-15T12:35:59.543Z,30.43
2017-10-15T12:38:26.959Z,36.80
2017-10-15T12:40:54.685Z,41.23
2017-10-15T12:43:22.092Z,48.70
2017-10-15T12:45:49.550Z,46.77
2017-10-15T12:48:16.966Z,35.83
2017-10-15T12:50:44.392Z,39.70
2017-10-15T12:53:11.839Z,29.20
2017-10-15T12:55:39.278Z,25.70
2017-10-15T12:58:06.710Z,40.60
2017-10-15T13:00:34.169Z,27.27
2017-10-15T13:03:01.608Z,40.37
2017-10-15T13:05:29.027Z,38.00
2017-10-15T13:07:56.425Z,34.53
2017-10-15T13:10:23.912Z,41.73
2017-10-15T13:12:51.314Z,31.23
2017-10-15T13:15:18.750Z,41.83
2017-10-15T13:17:46.163Z,23.00
2017-10-15T13:20:13.595Z,36.40
2017-10-15T13:22:41.069Z,23.10
2017-10-15T13:25:08.517Z,21.97
2017-10-15T13:27:35.947Z,20.53
2017-10-15T13:30:03.368Z,16.83
2017-10-15T13:32:30.827Z,33.20
2017-10-15T13:34:58.254Z,27.50
2017-10-15T13:37:25.796Z,25.57
2017-10-15T13:39:53.203Z,28.10
2017-10-15T13:42:20.621Z,30.03
2017-10-15T13:44:48.093Z,26.27
2017-10-15T13:47:15.520Z,41.07
2017-10-15T13:49:42.951Z,26.97
2017-10-15T13:52:10.391Z,25.67
2017-10-15T13:54:37.890Z,23.23
2017-10-15T13:57:05.314Z,25.83
2017-10-15T13:59:32.760Z,31.33
2017-10-15T14:02:00.294Z,23.87
2017-10-15T14:04:27.741Z,30.30
2017-10-15T14:06:55.207Z,33.60
2017-10-15T14:09:22.646Z,27.43
2017-10-15T14:11:50.210Z,32.67
2017-10-15T14:14:17.634Z,30.40
2017-10-15T14:16:45.590Z,26.23
2017-10-15T14:19:12.998Z,29.17
2017-10-15T14:21:40.444Z,26.30
2017-10-15T14:24:07.910Z,35.87
2017-10-15T14:26:35.365Z,32.23
2017-10-15T14:29:02.795Z,43.67
2017-10-15T14:31:30.255Z,38.20
2017-10-15T14:33:57.729Z,29.07
2017-10-15T14:36:25.178Z,43.17
2017-10-15T14:38:52.626Z,24.20
2017-10-15T14:41:20.080Z,27.93
2017-10-15T14:43:47.518Z,41.80
2017-10-15T14:46:14.951Z,30.87
2017-10-15T14:48:42.457Z,36.40
2017-10-15T14:51:09.909Z,34.23
2017-10-15T14:53:37.335Z,36.00
2017-10-15T14:56:04.761Z,25.90
2017-10-15T14:58:32.196Z,32.67
2017-10-15T15:00:59.993Z,47.67
2017-10-15T15:03:27.415Z,24.17
2017-10-15T15:05:54.874Z,25.30
2017-10-15T15:08:22.313Z,23.47
2017-10-15T15:10:49.715Z,29.17
2017-10-15T15:13:17.927Z,34.43
2017-10-15T15:15:45.334Z,23.23
2017-10-15T15:18:12.762Z,29.70
2017-10-15T15:20:40.189Z,40.83
2017-10-15T15:23:07.653Z,27.93
2017-10-15T15:25:35.135Z,25.10
2017-10-15T15:28:02.562Z,26.27
2017-10-15T15:30:30.012Z,24.07
2017-10-15T15:32:57.529Z,43.43
2017-10-15T15:35:25.318Z,36.40
2017-10-15T15:37:52.745Z,31.57
2017-10-15T15:40:20.180Z,66.53
2017-10-15T15:42:47.607Z,63.57
2017-10-15T15:45:15.073Z,52.27
2017-10-15T15:47:42.554Z,43.57
2017-10-15T15:50:10.059Z,40.60
2017-10-15T15:52:37.546Z,36.67
2017-10-15T15:55:04.997Z,29.53
2017-10-15T15:57:32.475Z,30.83
2017-10-15T15:59:59.952Z,24.00
2017-10-15T16:02:27.439Z,32.00
2017-10-15T16:04:54.884Z,25.60
2017-10-15T16:07:22.349Z,22.50
2017-10-15T16:09:49.833Z,30.50
2017-10-15T16:12:17.246Z,32.23
2017-10-15T16:14:44.974Z,33.83
2017-10-15T16:17:12.386Z,44.50
2017-10-15T16:19:39.888Z,52.60
2017-10-15T16:22:07.360Z,36.70
2017-10-15T16:24:34.818Z,33.03
2017-10-15T16:27:02.270Z,36.03
2017-10-15T16:29:29.704Z,41.03
2017-10-15T16:31:57.211Z,43.73
2017-10-15T16:34:24.676Z,32.97
2017-10-15T16:36:52.100Z,54.40
2017-10-15T16:39:19.905Z,51.03
2017-10-15T16:41:47.374Z,47.47
2017-10-15T16:44:15.635Z,44.40
2017-10-15T16:46:43.147Z,33.67
2017-10-15T16:49:10.597Z,34.03
2017-10-15T16:51:38.008Z,46.10
2017-10-15T16:54:05.444Z,52.73
2017-10-15T16:56:32.891Z,55.77
2017-10-15T16:59:00.284Z,53.50
2017-10-15T17:01:27.775Z,51.93
2017-10-15T17:03:55.245Z,58.33
2017-10-15T17:06:22.668Z,54.80
2017-10-15T17:08:50.101Z,43.93
2017-10-15T17:11:17.586Z,52.97
2017-10-15T17:13:45.058Z,49.20
2017-10-15T17:16:12.535Z,49.77
2017-10-15T17:18:39.998Z,57.00
2017-10-15T17:21:07.431Z,54.50
2017-10-15T17:23:34.902Z,56.13
2017-10-15T17:26:02.347Z,61.50
2017-10-15T17:28:29.797Z,53.93
2017-10-15T17:30:57.231Z,53.97
2017-10-15T17:33:24.645Z,60.40
2017-10-15T17:35:52.069Z,63.97
2017-10-15T17:38:19.543Z,83.97
2017-10-15T17:40:46.954Z,76.27
2017-10-15T17:43:14.379Z,192.57
2017-10-15T17:45:41.804Z,493.93
2017-10-15T17:48:09.610Z,187.87
2017-10-15T17:50:37.072Z,99.67
2017-10-15T17:53:04.553Z,67.10
2017-10-15T17:55:31.986Z,83.27
2017-10-15T17:57:59.497Z,51.60
2017-10-15T18:00:26.948Z,84.33
2017-10-15T18:02:54.404Z,72.50
2017-10-15T18:05:21.911Z,61.43
2017-10-15T18:07:49.566Z,48.73
2017-10-15T18:10:17.005Z,71.77
2017-10-15T18:12:44.490Z,48.90
2017-10-15T18:15:12.535Z,47.90
2017-10-15T18:17:40.048Z,64.53
2017-10-15T18:20:07.476Z,55.90
2017-10-15T18:22:34.961Z,63.67
2017-10-15T18:25:02.395Z,59.80
2017-10-15T18:27:29.825Z,62.53
2017-10-15T18:29:57.284Z,60.20
2017-10-15T18:32:24.758Z,56.73
2017-10-15T18:34:52.216Z,66.10
2017-10-15T18:37:19.643Z,54.90
2017-10-15T18:39:47.058Z,57.60
2017-10-15T18:42:14.485Z,66.00
2017-10-15T18:44:41.962Z,74.00
2017-10-15T18:47:09.688Z,60.00
2017-10-15T18:49:37.147Z,61.43
2017-10-15T18:52:04.570Z,74.50
2017-10-15T18:54:31.998Z,73.90
2017-10-15T18:56:59.414Z,80.57
2017-10-15T18:59:26.875Z,79.00
2017-10-15T19:01:54.303Z,81.63
2017-10-15T19:04:21.734Z,59.33
2017-10-15T19:06:49.182Z,60.17
2017-10-15T19:09:16.675Z,64.97
2017-10-15T19:11:44.488Z,65.13
2017-10-15T19:14:11.914Z,46.10
2017-10-15T19:16:39.326Z,62.93
2017-10-15T19:19:06.780Z,65.47
2017-10-15T19:21:34.193Z,214.00
2017-10-15T19:24:01.806Z,93.80
2017-10-15T19:26:29.230Z,60.90
2017-10-15T19:28:56.758Z,48.40
2017-10-15T19:31:24.255Z,51.73
2017-10-15T19:33:51.716Z,57.20
2017-10-15T19:36:19.164Z,70.37
2017-10-15T19:38:46.610Z,59.70
2017-10-15T19:41:14.068Z,61.27
2017-10-15T19:43:41.665Z,67.70
2017-10-15T19:46:09.175Z,76.73
2017-10-15T19:48:36.624Z,62.53
2017-10-15T19:51:04.061Z,50.33
2017-10-15T19:53:31.537Z,59.33
2017-10-15T19:55:58.964Z,51.13
2017-10-15T19:58:26.415Z,63.53
2017-10-15T20:00:53.886Z,61.80
2017-10-15T20:03:21.314Z,65.57
2017-10-15T20:05:48.740Z,46.03
2017-10-15T20:08:16.174Z,328.30
2017-10-15T20:10:43.647Z,163.63
2017-10-15T20:13:11.085Z,107.97
2017-10-15T20:15:38.526Z,63.40
2017-10-15T20:18:05.957Z,55.27
2017-10-15T20:20:34.908Z,82.67
2017-10-15T20:23:02.359Z,67.77
2017-10-15T20:25:29.780Z,67.83
2017-10-15T20:27:57.208Z,64.30
2017-10-15T20:30:24.664Z,74.73
2017-10-15T20:32:52.059Z,73.57
2017-10-15T20:35:19.520Z,68.00
2017-10-15T20:37:46.946Z,59.20
2017-10-15T20:40:14.432Z,51.57
2017-10-15T20:42:41.881Z,40.80
2017-10-15T20:45:09.333Z,32.57
2017-10-15T20:47:36.791Z,49.57
2017-10-15T20:50:04.596Z,76.10
2017-10-15T20:52:32.078Z,52.90
2017-10-15T20:54:59.520Z,51.20
2017-10-15T20:57:26.940Z,59.77
2017-10-15T20:59:54.363Z,59.87
2017-10-15T21:02:21.814Z,63.80
2017-10-15T21:04:49.470Z,57.13
2017-10-15T21:07:16.921Z,74.23
2017-10-15T21:09:44.329Z,69.23
2017-10-15T21:12:11.794Z,54.10
2017-10-15T21:14:39.234Z,43.37
2017-10-15T21:17:06.641Z,34.57
2017-10-15T21:19:34.074Z,36.53
2017-10-15T21:22:01.502Z,45.90
2017-10-15T21:24:28.979Z,48.10
2017-10-15T21:26:56.409Z,36.30
2017-10-15T21:29:23.844Z,46.00
2017-10-15T21:31:51.254Z,44.40
2017-10-15T21:34:18.737Z,35.80
2017-10-15T21:36:46.139Z,40.40
2017-10-15T21:39:13.585Z,36.93
2017-10-15T21:41:41.025Z,51.77
2017-10-15T21:44:08.467Z,43.63
2017-10-15T21:46:35.890Z,42.67
2017-10-15T21:49:03.322Z,40.53
2017-10-15T21:51:30.753Z,48.43
2017-10-15T21:53:58.158Z,44.33
2017-10-15T21:56:25.596Z,46.57
2017-10-15T21:58:53.009Z,34.87
2017-10-15T22:01:20.417Z,75.97
2017-10-15T22:03:47.854Z,81.30
2017-10-15T22:06:15.273Z,61.33
2017-10-15T22:08:42.697Z,56.43
2017-10-15T22:11:10.103Z,55.30
2017-10-15T22:13:37.538Z,96.70
2017-10-15T22:16:04.958Z,94.87
2017-10-15T22:18:38.466Z,85.23
2017-10-15T22:21:11.351Z,66.80
2017-10-15T22:23:38.779Z,73.40
2017-10-15T22:26:06.174Z,92.57
2017-10-15T22:28:33.593Z,99.63
2017-10-15T22:31:01.035Z,99.80
2017-10-15T22:33:28.483Z,92.57
2017-10-15T22:35:55.946Z,99.07
2017-10-15T22:38:23.376Z,71.17
2017-10-15T22:40:50.801Z,82.80
2017-10-15T22:43:18.227Z,74.77
2017-10-15T22:45:45.675Z,65.53
2017-10-15T22:48:13.124Z,72.27
2017-10-15T22:50:40.526Z,89.67
2017-10-15T22:53:07.961Z,61.97
2017-10-15T22:55:35.398Z,65.50
2017-10-15T22:58:02.872Z,64.07
2017-10-15T23:00:30.294Z,63.37
2017-10-15T23:02:57.768Z,102.70
2017-10-15T23:05:25.217Z,110.90
2017-10-15T23:07:52.623Z,117.40
2017-10-15T23:10:20.360Z,108.57
2017-10-15T23:12:47.787Z,102.47
2017-10-15T23:15:15.188Z,94.70
2017-10-15T23:17:42.649Z,78.60
2017-10-15T23:20:10.068Z,74.73
2017-10-15T23:22:37.488Z,95.90
2017-10-15T23:25:04.902Z,91.60
2017-10-15T23:27:32.366Z,98.60
2017-10-15T23:29:59.780Z,79.53
2017-10-15T23:32:27.222Z,76.20
2017-10-15T23:34:54.642Z,90.97
2017-10-15T23:37:22.038Z,82.20
2017-10-15T23:39:49.494Z,104.93
2017-10-15T23:42:16.918Z,99.47
2017-10-15T23:44:44.354Z,108.37
2017-10-15T23:47:11.764Z,84.43
2017-10-15T23:49:39.243Z,93.13
2017-10-15T23:52:06.682Z,68.27
2017-10-15T23:54:34.111Z,68.23
2017-10-15T23:57:01.578Z,83.57
2017-10-15T23:59:28.998Z,83.37
